Coxim, Brazil
Current Conditions -  °F | °C
As of 9:00 PM on Sunday 21 Dec 2014 (Local Time) from SBCG Reporting Station
Scattered Clouds Scattered Clouds  
Wind Chill: 75°   Ceiling: Unl
Heat Index: 75°   Visibility: 6mi
Dew Point: 72°   Wind: 8mph
Humidity: 89%   Direction: 360°N
Pressure: 29.8"   Gusts: NA
Location:  18.5°S, 54.75°W
Report Text: SBCG 220000Z 36007KT 9999 FEW030 FEW040TCU SCT080 24/22 Q1009
Loading
Personal Weather Stations






























Interactive Weather Map New forecast layout! Learn more

10-Day Weather Forecast

Advertisements
Track Severe Weather on mobile